Time;durP1;ratioP1;P1;durP2;ratioP2;P2;SDS_P1;SDS_P2;PMS_P1;PMS_P2;Temp;Humidity;BMP_temperature;BMP_pressure;BME280_temperature;BME280_humidity;BME280_pressure;Samples;Min_cycle;Max_cycle;Signal;HPM_P1;HPM_P2
2023/12/14 00:00:34;;;;;;;5.05;3.45;;;;;;;;;;5027652;28;20040;-84
2023/12/14 00:03:00;;;;;;;5.30;3.38;;;;;;;;;;5028041;28;20037;-84
2023/12/14 00:05:26;;;;;;;4.93;3.50;;;;;;;;;;5014074;28;20135;-84
2023/12/14 00:07:52;;;;;;;4.63;3.47;;;;;;;;;;5043630;28;20037;-84
2023/12/14 00:10:18;;;;;;;6.13;3.47;;;;;;;;;;5028933;28;20044;-84
2023/12/14 00:12:45;;;;;;;4.88;3.05;;;;;;;;;;5031244;28;20049;-83
2023/12/14 00:15:11;;;;;;;5.30;3.47;;;;;;;;;;5028020;28;20044;-84
2023/12/14 00:17:37;;;;;;;4.95;3.20;;;;;;;;;;5029458;28;20049;-84
2023/12/14 00:20:03;;;;;;;5.93;3.60;;;;;;;;;;5025640;28;20044;-84
2023/12/14 00:22:29;;;;;;;6.15;3.20;;;;;;;;;;5026992;28;20512;-84
2023/12/14 00:24:55;;;;;;;5.22;3.75;;;;;;;;;;5027276;28;20033;-84
2023/12/14 00:27:21;;;;;;;5.75;3.05;;;;;;;;;;5032390;28;20036;-84
2023/12/14 00:29:47;;;;;;;4.95;3.03;;;;;;;;;;5030844;28;20499;-84
2023/12/14 00:32:13;;;;;;;5.13;2.95;;;;;;;;;;5030973;28;20044;-84
2023/12/14 00:34:40;;;;;;;4.47;2.67;;;;;;;;;;5027708;28;20068;-84
2023/12/14 00:37:06;;;;;;;4.78;2.80;;;;;;;;;;5025255;28;20055;-84
2023/12/14 00:39:32;;;;;;;5.38;3.13;;;;;;;;;;5030415;28;20045;-84
2023/12/14 00:41:58;;;;;;;4.93;3.13;;;;;;;;;;5044615;28;20116;-84
2023/12/14 00:44:24;;;;;;;5.22;3.22;;;;;;;;;;5028113;28;20535;-84
2023/12/14 00:46:50;;;;;;;4.75;3.20;;;;;;;;;;5027898;28;20041;-84
2023/12/14 00:49:18;;;;;;;6.53;2.78;;;;;;;;;;5026966;28;20036;-84
2023/12/14 00:51:44;;;;;;;6.25;3.55;;;;;;;;;;5015736;28;20080;-84
2023/12/14 00:54:10;;;;;;;5.35;3.80;;;;;;;;;;5029057;28;20037;-84
2023/12/14 00:56:36;;;;;;;5.22;3.00;;;;;;;;;;5027576;28;20051;-84
2023/12/14 00:59:02;;;;;;;5.78;3.38;;;;;;;;;;5028286;28;20048;-84
2023/12/14 01:01:28;;;;;;;6.38;3.22;;;;;;;;;;5043858;28;20558;-84
2023/12/14 01:03:54;;;;;;;5.18;3.38;;;;;;;;;;5025162;28;20072;-84
2023/12/14 01:06:20;;;;;;;5.32;3.15;;;;;;;;;;5047531;28;20044;-84
2023/12/14 01:08:46;;;;;;;5.30;3.15;;;;;;;;;;5043589;28;20033;-84
2023/12/14 01:11:12;;;;;;;5.03;2.97;;;;;;;;;;5023564;28;20235;-84
2023/12/14 01:13:38;;;;;;;5.03;3.00;;;;;;;;;;5042305;28;20181;-84
2023/12/14 01:16:04;;;;;;;5.70;3.35;;;;;;;;;;5044296;28;20059;-84
2023/12/14 01:18:31;;;;;;;6.57;3.00;;;;;;;;;;5024258;28;20373;-84
2023/12/14 01:20:57;;;;;;;5.72;3.42;;;;;;;;;;5032575;28;20049;-84
2023/12/14 01:23:23;;;;;;;5.65;3.35;;;;;;;;;;5026255;28;20064;-84
2023/12/14 01:25:49;;;;;;;4.97;3.30;;;;;;;;;;5030960;28;20040;-84
2023/12/14 01:28:15;;;;;;;5.88;2.72;;;;;;;;;;5012023;28;20049;-83
2023/12/14 01:30:41;;;;;;;4.38;2.92;;;;;;;;;;5011194;28;20041;-84
2023/12/14 01:33:07;;;;;;;5.90;2.92;;;;;;;;;;5027371;28;20097;-84
2023/12/14 01:35:33;;;;;;;5.18;3.20;;;;;;;;;;5024706;28;20072;-84
2023/12/14 01:37:59;;;;;;;4.72;2.95;;;;;;;;;;5030507;28;20091;-84
2023/12/14 01:40:25;;;;;;;6.35;3.13;;;;;;;;;;5044041;28;20051;-84
2023/12/14 01:42:51;;;;;;;4.00;2.20;;;;;;;;;;5025793;28;20041;-84
2023/12/14 01:45:18;;;;;;;4.55;2.58;;;;;;;;;;5028490;28;20052;-84
2023/12/14 01:47:44;;;;;;;5.38;3.45;;;;;;;;;;5030843;28;20041;-84
2023/12/14 01:50:10;;;;;;;4.63;2.65;;;;;;;;;;5045573;28;20076;-84
2023/12/14 01:52:36;;;;;;;5.30;2.83;;;;;;;;;;5044743;28;20143;-84
2023/12/14 01:55:02;;;;;;;6.57;3.30;;;;;;;;;;5045761;28;20512;-83
2023/12/14 01:57:28;;;;;;;5.68;3.05;;;;;;;;;;5026611;28;20063;-84
2023/12/14 01:59:54;;;;;;;4.28;2.40;;;;;;;;;;5026585;28;20044;-84
2023/12/14 02:02:20;;;;;;;3.50;2.40;;;;;;;;;;5024735;28;20033;-84
2023/12/14 02:04:46;;;;;;;4.30;2.67;;;;;;;;;;5044196;28;20524;-84
2023/12/14 02:07:12;;;;;;;4.78;2.95;;;;;;;;;;5041550;28;20037;-84
2023/12/14 02:09:39;;;;;;;4.93;3.35;;;;;;;;;;5022957;28;20570;-84
2023/12/14 02:12:05;;;;;;;5.35;2.22;;;;;;;;;;5044789;28;20040;-84
2023/12/14 02:14:31;;;;;;;6.18;3.50;;;;;;;;;;5028991;28;20037;-84
2023/12/14 02:16:57;;;;;;;6.03;2.80;;;;;;;;;;5015739;28;20041;-84
2023/12/14 02:19:23;;;;;;;3.45;2.42;;;;;;;;;;5016118;28;20044;-84
2023/12/14 02:21:52;;;;;;;5.90;2.50;;;;;;;;;;5062603;28;20101;-84
2023/12/14 02:24:18;;;;;;;5.30;2.78;;;;;;;;;;5049096;28;20460;-84
2023/12/14 02:26:44;;;;;;;4.40;2.55;;;;;;;;;;5034682;28;20051;-84
2023/12/14 02:29:10;;;;;;;4.47;2.47;;;;;;;;;;5030487;28;20063;-84
2023/12/14 02:31:36;;;;;;;4.25;2.42;;;;;;;;;;5039532;28;20040;-84
2023/12/14 02:34:02;;;;;;;6.20;3.03;;;;;;;;;;5033502;28;20045;-84
2023/12/14 02:36:28;;;;;;;4.18;2.65;;;;;;;;;;5033903;28;20040;-84
2023/12/14 02:38:54;;;;;;;4.70;2.10;;;;;;;;;;5032151;28;20038;-84
2023/12/14 02:41:23;;;;;;;3.53;2.03;;;;;;;;;;5042312;28;20073;-84
2023/12/14 02:43:49;;;;;;;6.30;2.38;;;;;;;;;;5026812;28;20099;-84
2023/12/14 02:46:15;;;;;;;3.70;2.00;;;;;;;;;;5026803;28;20049;-84
2023/12/14 02:48:43;;;;;;;4.30;2.35;;;;;;;;;;5045457;28;20059;-84
2023/12/14 02:51:13;;;;;;;5.10;3.22;;;;;;;;;;5028684;28;20053;-84
2023/12/14 02:53:39;;;;;;;4.40;2.45;;;;;;;;;;5027584;28;20119;-84
2023/12/14 02:56:05;;;;;;;3.58;2.33;;;;;;;;;;5033658;28;20040;-84
2023/12/14 02:58:31;;;;;;;5.65;2.20;;;;;;;;;;5023013;28;20103;-84
2023/12/14 03:00:58;;;;;;;4.80;2.58;;;;;;;;;;5028992;28;20487;-84
2023/12/14 03:03:24;;;;;;;4.75;2.20;;;;;;;;;;5022932;28;20046;-84
2023/12/14 03:05:50;;;;;;;4.85;3.47;;;;;;;;;;5011638;28;20050;-84
2023/12/14 03:08:16;;;;;;;6.20;2.30;;;;;;;;;;5026303;28;20076;-84
2023/12/14 03:10:42;;;;;;;3.83;2.20;;;;;;;;;;5013532;28;20076;-84
2023/12/14 03:13:08;;;;;;;5.22;2.50;;;;;;;;;;5022712;28;20061;-84
2023/12/14 03:15:34;;;;;;;4.93;2.70;;;;;;;;;;5030253;28;20040;-84
2023/12/14 03:18:00;;;;;;;6.18;2.67;;;;;;;;;;5023101;28;20477;-84
2023/12/14 03:20:26;;;;;;;4.78;2.30;;;;;;;;;;5029671;28;20041;-84
2023/12/14 03:22:52;;;;;;;5.72;2.75;;;;;;;;;;5006489;28;20116;-84
2023/12/14 03:25:18;;;;;;;5.93;2.92;;;;;;;;;;5023286;28;20059;-84
2023/12/14 03:27:45;;;;;;;4.10;2.50;;;;;;;;;;5044992;28;20043;-84
2023/12/14 03:30:11;;;;;;;5.70;2.60;;;;;;;;;;5024868;28;20036;-84
2023/12/14 03:32:37;;;;;;;5.65;3.25;;;;;;;;;;5041902;28;20048;-84
2023/12/14 03:35:03;;;;;;;4.30;2.38;;;;;;;;;;5026318;28;20037;-84
2023/12/14 03:37:29;;;;;;;5.05;2.28;;;;;;;;;;5025925;28;20040;-84
2023/12/14 03:39:55;;;;;;;4.25;2.63;;;;;;;;;;5040562;28;20576;-84
2023/12/14 03:42:21;;;;;;;4.55;2.42;;;;;;;;;;5028086;28;20124;-84
2023/12/14 03:44:47;;;;;;;5.95;2.85;;;;;;;;;;5009460;28;20147;-84
2023/12/14 03:47:13;;;;;;;5.00;2.67;;;;;;;;;;5022995;28;20531;-84
2023/12/14 03:49:39;;;;;;;4.78;2.42;;;;;;;;;;5026132;28;20182;-84
2023/12/14 03:52:05;;;;;;;5.03;2.97;;;;;;;;;;5025229;28;20124;-84
2023/12/14 03:54:31;;;;;;;4.55;2.25;;;;;;;;;;5024467;28;20033;-84
2023/12/14 03:56:57;;;;;;;6.68;2.97;;;;;;;;;;5030149;28;20187;-84
2023/12/14 03:59:23;;;;;;;6.72;3.17;;;;;;;;;;5027783;28;20131;-84
2023/12/14 04:01:49;;;;;;;4.90;2.55;;;;;;;;;;5027309;28;20444;-84
2023/12/14 04:04:15;;;;;;;7.53;3.22;;;;;;;;;;5043243;28;20037;-84
2023/12/14 04:06:41;;;;;;;5.10;2.92;;;;;;;;;;5044046;28;20041;-84
2023/12/14 04:09:07;;;;;;;5.10;2.63;;;;;;;;;;5010321;28;20122;-84
2023/12/14 04:11:33;;;;;;;5.13;3.08;;;;;;;;;;5043744;28;20038;-84
2023/12/14 04:13:59;;;;;;;5.72;3.05;;;;;;;;;;5043935;28;20044;-84
2023/12/14 04:16:25;;;;;;;4.47;2.75;;;;;;;;;;5031487;28;20072;-84
2023/12/14 04:18:51;;;;;;;6.35;3.53;;;;;;;;;;5025138;28;20558;-84
2023/12/14 04:21:17;;;;;;;6.38;2.60;;;;;;;;;;5028002;28;20049;-84
2023/12/14 04:23:45;;;;;;;6.03;2.38;;;;;;;;;;5046680;28;20036;-84
2023/12/14 04:26:11;;;;;;;7.40;2.97;;;;;;;;;;5049413;28;20038;-84
2023/12/14 04:28:37;;;;;;;5.90;3.00;;;;;;;;;;5025813;28;20106;-84
2023/12/14 04:31:03;;;;;;;6.00;2.80;;;;;;;;;;5027103;28;20442;-84
2023/12/14 04:33:29;;;;;;;6.40;3.30;;;;;;;;;;5028409;28;20077;-84
2023/12/14 04:35:55;;;;;;;7.50;3.10;;;;;;;;;;5025737;28;20071;-84
2023/12/14 04:38:21;;;;;;;5.55;2.70;;;;;;;;;;5024959;28;20055;-84
2023/12/14 04:40:47;;;;;;;5.38;3.20;;;;;;;;;;5027422;28;20064;-84
2023/12/14 04:43:13;;;;;;;5.00;3.17;;;;;;;;;;5026763;28;20714;-84
2023/12/14 04:45:39;;;;;;;6.43;3.35;;;;;;;;;;5027468;28;20069;-84
2023/12/14 04:48:05;;;;;;;6.53;3.83;;;;;;;;;;5026176;28;20033;-84
2023/12/14 04:50:31;;;;;;;6.70;4.30;;;;;;;;;;5030279;28;20092;-84
2023/12/14 04:52:57;;;;;;;8.68;3.33;;;;;;;;;;5027143;28;20073;-84
2023/12/14 04:55:23;;;;;;;7.30;3.65;;;;;;;;;;5012968;28;20041;-85
2023/12/14 04:57:49;;;;;;;7.75;3.28;;;;;;;;;;5030204;28;20124;-84
2023/12/14 05:00:16;;;;;;;5.72;2.95;;;;;;;;;;5029177;28;20488;-84
2023/12/14 05:02:46;;;;;;;6.03;2.90;;;;;;;;;;5050463;28;20640;-84
2023/12/14 05:05:13;;;;;;;7.53;3.70;;;;;;;;;;5045226;28;20068;-84
2023/12/14 05:07:39;;;;;;;6.30;3.70;;;;;;;;;;5045122;28;20124;-84
2023/12/14 05:10:05;;;;;;;6.18;3.08;;;;;;;;;;5042794;28;20407;-84
2023/12/14 05:12:31;;;;;;;8.63;4.18;;;;;;;;;;5041883;28;20051;-84
2023/12/14 05:14:58;;;;;;;6.60;3.25;;;;;;;;;;5025579;28;20067;-84
2023/12/14 05:17:24;;;;;;;8.35;3.30;;;;;;;;;;5025601;28;20392;-84
2023/12/14 05:19:50;;;;;;;9.05;4.18;;;;;;;;;;5029779;28;20045;-83
2023/12/14 05:22:16;;;;;;;6.40;3.15;;;;;;;;;;5030106;28;20040;-84
2023/12/14 05:24:41;;;;;;;4.70;3.33;;;;;;;;;;5044169;28;20124;-84
2023/12/14 05:27:07;;;;;;;6.70;3.08;;;;;;;;;;5051610;28;20102;-84
2023/12/14 05:29:34;;;;;;;6.55;3.17;;;;;;;;;;5029164;28;20377;-84
2023/12/14 05:32:00;;;;;;;6.45;3.63;;;;;;;;;;5025734;28;20033;-84
2023/12/14 05:34:26;;;;;;;6.03;3.20;;;;;;;;;;5014377;28;20049;-84
2023/12/14 05:36:52;;;;;;;7.32;3.38;;;;;;;;;;5023965;28;20048;-84
2023/12/14 05:39:18;;;;;;;10.07;3.75;;;;;;;;;;5030112;28;20036;-84
2023/12/14 05:41:44;;;;;;;5.88;2.78;;;;;;;;;;5027498;28;20049;-84
2023/12/14 05:44:10;;;;;;;5.03;2.83;;;;;;;;;;5030139;28;20191;-84
2023/12/14 05:46:36;;;;;;;5.75;3.15;;;;;;;;;;5029865;28;20096;-84
2023/12/14 05:49:02;;;;;;;7.55;3.33;;;;;;;;;;5033684;28;20101;-84
2023/12/14 05:51:32;;;;;;;7.80;3.95;;;;;;;;;;5051284;28;20052;-84
2023/12/14 05:53:58;;;;;;;4.35;2.63;;;;;;;;;;5030843;28;20420;-84
2023/12/14 05:56:24;;;;;;;8.48;3.50;;;;;;;;;;5035418;28;20097;-84
2023/12/14 05:58:50;;;;;;;6.32;3.40;;;;;;;;;;5031397;28;20134;-83
2023/12/14 06:01:20;;;;;;;4.85;2.45;;;;;;;;;;5052055;28;20037;-84
2023/12/14 06:03:46;;;;;;;7.05;3.53;;;;;;;;;;5035786;28;20041;-84
2023/12/14 06:06:15;;;;;;;4.95;3.05;;;;;;;;;;5031844;28;20041;-84
2023/12/14 06:08:41;;;;;;;8.00;4.07;;;;;;;;;;5026424;28;20586;-84
2023/12/14 06:11:08;;;;;;;6.05;3.17;;;;;;;;;;5028747;28;20044;-84
2023/12/14 06:13:34;;;;;;;6.28;3.50;;;;;;;;;;5028602;28;20132;-83
2023/12/14 06:16:00;;;;;;;5.95;3.70;;;;;;;;;;5045516;28;20123;-84
2023/12/14 06:18:26;;;;;;;5.97;3.22;;;;;;;;;;5025963;28;20041;-84
2023/12/14 06:20:52;;;;;;;5.78;2.97;;;;;;;;;;5049277;28;20033;-84
2023/12/14 06:23:19;;;;;;;8.10;3.83;;;;;;;;;;5031692;28;20464;-84
2023/12/14 06:25:45;;;;;;;6.97;3.72;;;;;;;;;;5032198;28;20076;-84
2023/12/14 06:28:12;;;;;;;9.25;3.42;;;;;;;;;;5027310;28;20057;-84
2023/12/14 06:30:38;;;;;;;7.10;3.83;;;;;;;;;;5029514;28;20049;-83
2023/12/14 06:33:04;;;;;;;7.38;3.95;;;;;;;;;;5032346;28;20044;-83
2023/12/14 06:35:30;;;;;;;9.25;3.40;;;;;;;;;;5026623;28;20454;-84
2023/12/14 06:37:55;;;;;;;8.00;3.83;;;;;;;;;;5029159;28;20049;-83
2023/12/14 06:40:21;;;;;;;7.55;3.20;;;;;;;;;;5033135;28;20445;-83
2023/12/14 06:42:49;;;;;;;6.68;3.45;;;;;;;;;;5029529;28;20049;-83
2023/12/14 06:45:15;;;;;;;5.47;3.30;;;;;;;;;;5013362;28;20091;-83
2023/12/14 06:47:43;;;;;;;7.30;4.00;;;;;;;;;;5045733;28;20044;-85
2023/12/14 06:50:09;;;;;;;8.98;4.05;;;;;;;;;;5037723;28;20057;-83
2023/12/14 06:52:35;;;;;;;8.23;3.72;;;;;;;;;;5010332;28;20057;-84
2023/12/14 06:55:01;;;;;;;8.57;3.97;;;;;;;;;;5035821;28;20460;-83
2023/12/14 06:57:28;;;;;;;6.88;3.42;;;;;;;;;;5042829;28;20067;-83
2023/12/14 06:59:54;;;;;;;6.18;3.38;;;;;;;;;;5024449;28;20099;-84
2023/12/14 07:02:20;;;;;;;6.07;3.33;;;;;;;;;;5026782;28;20037;-85
2023/12/14 07:04:46;;;;;;;5.43;3.17;;;;;;;;;;5026133;28;20045;-84
2023/12/14 07:07:12;;;;;;;8.43;3.60;;;;;;;;;;5026856;28;20052;-84
2023/12/14 07:09:39;;;;;;;7.22;3.95;;;;;;;;;;5025923;28;20171;-85
2023/12/14 07:12:05;;;;;;;6.32;3.60;;;;;;;;;;5022638;28;20132;-83
2023/12/14 07:14:31;;;;;;;6.55;3.22;;;;;;;;;;5026682;28;20044;-84
2023/12/14 07:16:57;;;;;;;6.13;3.60;;;;;;;;;;5023868;28;20045;-84
2023/12/14 07:19:23;;;;;;;7.30;3.47;;;;;;;;;;5024553;28;20411;-84
2023/12/14 07:21:49;;;;;;;5.15;3.28;;;;;;;;;;5031691;28;20043;-83
2023/12/14 07:24:15;;;;;;;6.25;3.25;;;;;;;;;;5040730;28;20040;-84
2023/12/14 07:26:41;;;;;;;6.93;3.78;;;;;;;;;;5030257;28;20040;-84
2023/12/14 07:29:07;;;;;;;7.22;3.25;;;;;;;;;;5040299;28;20098;-84
2023/12/14 07:31:33;;;;;;;7.07;3.17;;;;;;;;;;5028855;28;20075;-85
2023/12/14 07:33:59;;;;;;;7.00;3.85;;;;;;;;;;5033125;28;20086;-84
2023/12/14 07:36:26;;;;;;;7.07;3.75;;;;;;;;;;5030289;28;20045;-84
2023/12/14 07:38:52;;;;;;;7.10;3.33;;;;;;;;;;5046970;28;20347;-83
2023/12/14 07:41:18;;;;;;;7.63;3.58;;;;;;;;;;5045948;28;20040;-84
2023/12/14 07:43:44;;;;;;;6.50;3.78;;;;;;;;;;5024179;28;20075;-84
2023/12/14 07:46:10;;;;;;;6.47;3.35;;;;;;;;;;5052595;28;20079;-85
2023/12/14 07:48:36;;;;;;;6.05;3.45;;;;;;;;;;5012729;28;20037;-83
2023/12/14 07:51:02;;;;;;;6.68;3.78;;;;;;;;;;5044882;28;20045;-84
2023/12/14 07:53:28;;;;;;;6.63;3.47;;;;;;;;;;5031455;28;20045;-84
2023/12/14 07:55:54;;;;;;;7.38;4.15;;;;;;;;;;5042545;28;20037;-84
2023/12/14 07:58:21;;;;;;;6.45;3.38;;;;;;;;;;5046998;28;20037;-84
2023/12/14 08:00:47;;;;;;;6.28;3.55;;;;;;;;;;5010690;28;20128;-84
2023/12/14 08:03:13;;;;;;;7.38;3.78;;;;;;;;;;5026189;28;20136;-83
2023/12/14 08:05:39;;;;;;;6.57;3.67;;;;;;;;;;5025766;28;20047;-84
2023/12/14 08:08:05;;;;;;;7.43;3.92;;;;;;;;;;5027734;28;20039;-83
2023/12/14 08:10:32;;;;;;;5.15;2.88;;;;;;;;;;5029691;28;20045;-87
2023/12/14 08:12:57;;;;;;;6.53;3.65;;;;;;;;;;5025609;28;20048;-87
2023/12/14 08:15:23;;;;;;;6.18;3.85;;;;;;;;;;5027426;28;20052;-85
2023/12/14 08:17:49;;;;;;;6.65;3.13;;;;;;;;;;5023510;28;20041;-85
2023/12/14 08:20:15;;;;;;;5.75;3.40;;;;;;;;;;5015341;28;20043;-85
2023/12/14 08:22:44;;;;;;;6.40;3.47;;;;;;;;;;5010285;28;20336;-85
2023/12/14 08:25:11;;;;;;;6.65;2.95;;;;;;;;;;5023942;28;20120;-85
2023/12/14 08:27:37;;;;;;;8.15;3.30;;;;;;;;;;5031443;28;20068;-85
2023/12/14 08:30:04;;;;;;;8.60;3.83;;;;;;;;;;5014755;28;20515;-86
2023/12/14 08:32:30;;;;;;;5.13;3.03;;;;;;;;;;5023678;28;20120;-86
2023/12/14 08:34:56;;;;;;;5.72;3.05;;;;;;;;;;5011145;28;20069;-85
2023/12/14 08:37:22;;;;;;;5.38;2.80;;;;;;;;;;5030012;28;20037;-86
2023/12/14 08:39:48;;;;;;;6.47;3.45;;;;;;;;;;5028120;28;20083;-86
2023/12/14 08:42:14;;;;;;;7.45;3.30;;;;;;;;;;5011011;28;20062;-85
2023/12/14 08:44:40;;;;;;;5.80;3.30;;;;;;;;;;5045615;28;20175;-86
2023/12/14 08:47:08;;;;;;;6.68;3.75;;;;;;;;;;5011106;28;20448;-85
2023/12/14 08:49:35;;;;;;;6.93;3.67;;;;;;;;;;5027387;28;20413;-85
2023/12/14 08:52:01;;;;;;;5.40;3.00;;;;;;;;;;5013683;28;20048;-85
2023/12/14 08:54:27;;;;;;;6.97;4.07;;;;;;;;;;5024518;28;20095;-85
2023/12/14 08:56:53;;;;;;;6.53;3.45;;;;;;;;;;5026841;28;20052;-85
2023/12/14 08:59:20;;;;;;;6.47;3.10;;;;;;;;;;5029714;28;20119;-86
2023/12/14 09:01:46;;;;;;;7.82;3.17;;;;;;;;;;5010862;28;20041;-86
2023/12/14 09:04:13;;;;;;;9.95;4.30;;;;;;;;;;5029605;28;20045;-86
2023/12/14 09:06:42;;;;;;;6.35;3.22;;;;;;;;;;5027966;28;20041;-86
2023/12/14 09:09:08;;;;;;;5.13;3.85;;;;;;;;;;5024924;28;20052;-86
2023/12/14 09:11:36;;;;;;;4.95;3.35;;;;;;;;;;5023139;28;20424;-86
2023/12/14 09:14:02;;;;;;;6.95;3.80;;;;;;;;;;5026076;28;20045;-86
2023/12/14 09:16:28;;;;;;;6.90;3.90;;;;;;;;;;5026940;28;20420;-86
2023/12/14 09:18:54;;;;;;;7.68;3.70;;;;;;;;;;5025451;28;20083;-85
2023/12/14 09:21:20;;;;;;;7.07;3.92;;;;;;;;;;5024496;28;20064;-86
2023/12/14 09:23:48;;;;;;;8.93;3.92;;;;;;;;;;5010220;28;20049;-86
2023/12/14 09:26:15;;;;;;;9.23;3.65;;;;;;;;;;5030270;28;20400;-86
2023/12/14 09:28:42;;;;;;;8.38;4.88;;;;;;;;;;5011082;28;20049;-86
2023/12/14 09:31:08;;;;;;;9.95;5.07;;;;;;;;;;5013707;28;20120;-85
2023/12/14 09:33:34;;;;;;;7.07;3.95;;;;;;;;;;5028580;28;20043;-86
2023/12/14 09:36:00;;;;;;;7.47;3.97;;;;;;;;;;5031133;28;20041;-85
2023/12/14 09:38:26;;;;;;;11.30;5.07;;;;;;;;;;5013478;28;20094;-86
2023/12/14 09:40:52;;;;;;;7.75;4.18;;;;;;;;;;5030192;28;20036;-86
2023/12/14 09:43:18;;;;;;;9.85;5.40;;;;;;;;;;5036480;28;20037;-86
2023/12/14 09:45:46;;;;;;;10.85;4.93;;;;;;;;;;5029151;28;20518;-85
2023/12/14 09:48:12;;;;;;;9.40;5.07;;;;;;;;;;5044139;28;20064;-86
2023/12/14 09:50:40;;;;;;;9.95;4.63;;;;;;;;;;5026731;28;20132;-86
2023/12/14 09:53:07;;;;;;;9.13;4.28;;;;;;;;;;5038651;28;20123;-86
2023/12/14 09:55:33;;;;;;;8.32;4.22;;;;;;;;;;5025395;28;20492;-86
2023/12/14 09:58:00;;;;;;;10.38;4.30;;;;;;;;;;5028895;28;20033;-86
2023/12/14 10:00:33;;;;;;;9.57;4.43;;;;;;;;;;5026035;28;20489;-87
2023/12/14 10:03:17;;;;;;;9.32;4.15;;;;;;;;;;5008509;28;20041;-87
2023/12/14 10:05:43;;;;;;;6.65;4.47;;;;;;;;;;5006591;28;20048;-87
2023/12/14 10:08:09;;;;;;;7.57;3.90;;;;;;;;;;5026336;28;20040;-88
2023/12/14 10:10:35;;;;;;;8.05;4.05;;;;;;;;;;5015377;28;20407;-89
2023/12/14 10:13:01;;;;;;;8.82;4.93;;;;;;;;;;5027588;28;20044;-88
2023/12/14 10:15:27;;;;;;;8.05;4.07;;;;;;;;;;5014522;28;20492;-87
2023/12/14 10:17:54;;;;;;;9.40;4.50;;;;;;;;;;5032205;28;20091;-88
2023/12/14 10:20:24;;;;;;;7.35;4.38;;;;;;;;;;5041703;28;20044;-86
2023/12/14 10:22:50;;;;;;;10.05;4.63;;;;;;;;;;5032315;28;20393;-86
2023/12/14 10:25:18;;;;;;;8.85;4.32;;;;;;;;;;5024764;28;20059;-85
2023/12/14 10:27:47;;;;;;;8.13;4.38;;;;;;;;;;5015376;28;20384;-85
2023/12/14 10:30:15;;;;;;;6.78;3.55;;;;;;;;;;5030238;28;20030;-85
2023/12/14 10:32:41;;;;;;;8.75;4.90;;;;;;;;;;5034260;28;20068;-85
2023/12/14 10:35:07;;;;;;;8.52;3.97;;;;;;;;;;5044532;28;20040;-86
2023/12/14 10:37:35;;;;;;;9.88;4.57;;;;;;;;;;5042712;28;20503;-88
2023/12/14 10:40:05;;;;;;;9.48;4.40;;;;;;;;;;5042280;28;20134;-88
2023/12/14 10:42:32;;;;;;;9.60;5.10;;;;;;;;;;5046515;28;20053;-87
2023/12/14 10:44:59;;;;;;;10.60;4.38;;;;;;;;;;5029825;28;20048;-86
2023/12/14 10:47:25;;;;;;;9.50;4.45;;;;;;;;;;5048028;28;20049;-86
2023/12/14 10:49:52;;;;;;;10.60;5.05;;;;;;;;;;5052082;28;20049;-86
2023/12/14 10:52:19;;;;;;;7.65;3.92;;;;;;;;;;5051882;28;20045;-86
2023/12/14 10:54:46;;;;;;;12.13;4.90;;;;;;;;;;5032282;28;20052;-86
2023/12/14 10:57:12;;;;;;;7.82;4.22;;;;;;;;;;5015296;28;20091;-86
2023/12/14 10:59:38;;;;;;;9.77;4.75;;;;;;;;;;5027632;28;20037;-86
2023/12/14 11:02:09;;;;;;;7.15;4.50;;;;;;;;;;5027398;28;20055;-85
2023/12/14 11:04:55;;;;;;;9.38;4.55;;;;;;;;;;5025622;28;20534;-84
2023/12/14 11:07:41;;;;;;;8.52;5.03;;;;;;;;;;5014380;28;20071;-84
2023/12/14 11:10:07;;;;;;;10.90;5.47;;;;;;;;;;5028004;28;20049;-85
2023/12/14 11:12:34;;;;;;;8.25;4.35;;;;;;;;;;5029855;28;20048;-85
2023/12/14 11:15:00;;;;;;;8.70;3.97;;;;;;;;;;5005438;28;20048;-86
2023/12/14 11:17:29;;;;;;;9.98;4.50;;;;;;;;;;5030423;28;20555;-85
2023/12/14 11:19:55;;;;;;;9.13;3.95;;;;;;;;;;5011700;28;20037;-85
2023/12/14 11:22:27;;;;;;;12.23;5.10;;;;;;;;;;5018153;28;20450;-84
2023/12/14 11:24:54;;;;;;;11.13;5.55;;;;;;;;;;5030702;28;20091;-85
2023/12/14 11:27:27;;;;;;;11.38;5.38;;;;;;;;;;5038479;28;20041;-85
2023/12/14 11:29:54;;;;;;;8.80;4.72;;;;;;;;;;5052189;28;20075;-86
2023/12/14 11:32:20;;;;;;;8.80;4.65;;;;;;;;;;5036351;28;20068;-85
2023/12/14 11:34:47;;;;;;;8.80;4.40;;;;;;;;;;5021288;28;20480;-85
2023/12/14 11:37:13;;;;;;;11.13;4.78;;;;;;;;;;5030481;28;20041;-86
2023/12/14 11:39:40;;;;;;;9.93;4.65;;;;;;;;;;5010350;28;20040;-86
2023/12/14 11:42:10;;;;;;;9.10;4.72;;;;;;;;;;5024341;28;20205;-85
2023/12/14 11:44:37;;;;;;;10.20;5.70;;;;;;;;;;5031427;28;20068;-86
2023/12/14 11:47:03;;;;;;;9.85;5.18;;;;;;;;;;5031500;28;20068;-85
2023/12/14 11:49:30;;;;;;;9.15;4.47;;;;;;;;;;5016867;28;20489;-85
2023/12/14 11:51:56;;;;;;;10.30;5.13;;;;;;;;;;5044531;28;20021;-86
2023/12/14 11:54:23;;;;;;;7.10;4.47;;;;;;;;;;5040745;28;20041;-85
2023/12/14 11:56:49;;;;;;;10.20;5.10;;;;;;;;;;5032585;28;20071;-84
2023/12/14 11:59:17;;;;;;;10.50;5.55;;;;;;;;;;5032863;28;20485;-87
2023/12/14 12:02:03;;;;;;;8.77;4.80;;;;;;;;;;5035971;28;20045;-84
2023/12/14 12:04:30;;;;;;;12.30;5.68;;;;;;;;;;5046659;28;20041;-86
2023/12/14 12:07:17;;;;;;;8.88;4.82;;;;;;;;;;5029049;28;20480;-87
2023/12/14 12:09:43;;;;;;;7.53;4.30;;;;;;;;;;5031157;28;20381;-86
2023/12/14 12:12:10;;;;;;;9.95;5.22;;;;;;;;;;5025485;28;20038;-85
2023/12/14 12:14:37;;;;;;;9.43;5.30;;;;;;;;;;5028957;28;20136;-86
2023/12/14 12:17:07;;;;;;;8.30;4.88;;;;;;;;;;5010958;28;20041;-85
2023/12/14 12:19:34;;;;;;;9.38;4.55;;;;;;;;;;5027106;28;20124;-85
2023/12/14 12:22:00;;;;;;;7.35;3.83;;;;;;;;;;5028834;28;20507;-87
2023/12/14 12:24:26;;;;;;;8.65;5.10;;;;;;;;;;5030984;28;20139;-86
2023/12/14 12:26:52;;;;;;;7.63;3.80;;;;;;;;;;5031053;28;20075;-85
2023/12/14 12:29:18;;;;;;;9.25;4.35;;;;;;;;;;5028774;28;20290;-85
2023/12/14 12:31:45;;;;;;;10.27;4.65;;;;;;;;;;5030265;28;20441;-89
2023/12/14 12:34:11;;;;;;;9.15;4.80;;;;;;;;;;5012527;28;20041;-87
2023/12/14 12:36:37;;;;;;;9.27;4.95;;;;;;;;;;5032786;28;20094;-88
2023/12/14 12:39:05;;;;;;;10.05;5.50;;;;;;;;;;5024956;28;20120;-88
2023/12/14 12:41:32;;;;;;;8.13;4.63;;;;;;;;;;5011613;28;20045;-88
2023/12/14 12:43:59;;;;;;;8.80;4.38;;;;;;;;;;5011776;28;20042;-87
2023/12/14 12:46:25;;;;;;;8.27;4.18;;;;;;;;;;5026801;28;20113;-87
2023/12/14 12:48:51;;;;;;;7.00;4.18;;;;;;;;;;5013059;28;20076;-87
2023/12/14 12:51:17;;;;;;;7.82;3.65;;;;;;;;;;5023499;28;20064;-87
2023/12/14 12:53:43;;;;;;;7.97;4.60;;;;;;;;;;5007793;28;20103;-87
2023/12/14 12:56:09;;;;;;;8.60;4.10;;;;;;;;;;5004630;28;20452;-88
2023/12/14 12:58:35;;;;;;;8.45;4.07;;;;;;;;;;5023976;28;20045;-88
2023/12/14 13:01:01;;;;;;;9.00;4.43;;;;;;;;;;5032649;28;20489;-87
2023/12/14 13:03:27;;;;;;;8.88;4.50;;;;;;;;;;5025556;28;20114;-87
2023/12/14 13:05:54;;;;;;;9.13;4.30;;;;;;;;;;5014130;28;20499;-87
2023/12/14 13:08:22;;;;;;;6.78;4.13;;;;;;;;;;5013940;28;20029;-87
2023/12/14 13:10:51;;;;;;;6.47;3.50;;;;;;;;;;5028538;28;20523;-87
2023/12/14 13:13:17;;;;;;;7.22;3.72;;;;;;;;;;5009559;28;20416;-88
2023/12/14 13:15:44;;;;;;;8.18;4.07;;;;;;;;;;5015452;28;20043;-87
2023/12/14 13:18:10;;;;;;;8.05;3.50;;;;;;;;;;5009491;28;20048;-87
2023/12/14 13:20:36;;;;;;;9.55;3.95;;;;;;;;;;5010840;28;20408;-87
2023/12/14 13:23:02;;;;;;;9.52;4.30;;;;;;;;;;5011623;28;20053;-87
2023/12/14 13:25:28;;;;;;;12.60;5.47;;;;;;;;;;5013294;28;20030;-87
2023/12/14 13:27:54;;;;;;;7.95;3.85;;;;;;;;;;5031038;28;20046;-87
2023/12/14 13:30:22;;;;;;;11.73;5.75;;;;;;;;;;5029526;28;20033;-87
2023/12/14 13:32:48;;;;;;;10.20;5.13;;;;;;;;;;5035756;28;20064;-87
2023/12/14 13:35:14;;;;;;;7.47;4.75;;;;;;;;;;5020515;28;20056;-87
2023/12/14 13:37:41;;;;;;;13.10;5.90;;;;;;;;;;5015344;28;20547;-87
2023/12/14 13:40:09;;;;;;;8.93;4.68;;;;;;;;;;5009851;28;20160;-88
2023/12/14 13:42:35;;;;;;;9.60;5.13;;;;;;;;;;5025495;28;20116;-87
2023/12/14 13:45:01;;;;;;;9.30;4.95;;;;;;;;;;5004536;28;20042;-87
2023/12/14 13:47:28;;;;;;;9.07;4.30;;;;;;;;;;5028690;28;20036;-87
2023/12/14 13:49:53;;;;;;;7.38;4.05;;;;;;;;;;5024238;28;20076;-88
2023/12/14 13:52:19;;;;;;;6.03;3.28;;;;;;;;;;5021584;28;20485;-86
2023/12/14 13:54:45;;;;;;;8.07;3.95;;;;;;;;;;5023138;28;20053;-87
2023/12/14 13:57:11;;;;;;;8.50;4.28;;;;;;;;;;5028157;28;20112;-86
2023/12/14 13:59:37;;;;;;;8.45;4.63;;;;;;;;;;5022203;28;20033;-86
2023/12/14 14:02:03;;;;;;;7.07;4.35;;;;;;;;;;5025094;28;20519;-85
2023/12/14 14:04:29;;;;;;;10.02;4.00;;;;;;;;;;5018255;28;20092;-83
2023/12/14 14:06:56;;;;;;;8.23;4.80;;;;;;;;;;5023145;28;20045;-84
2023/12/14 14:09:23;;;;;;;9.48;3.75;;;;;;;;;;5022631;28;20049;-84
2023/12/14 14:11:50;;;;;;;8.32;4.18;;;;;;;;;;5027038;28;20399;-85
2023/12/14 14:14:16;;;;;;;10.02;4.68;;;;;;;;;;5022184;28;20204;-85
2023/12/14 14:16:42;;;;;;;7.35;4.53;;;;;;;;;;5010896;28;20037;-85
2023/12/14 14:19:08;;;;;;;6.28;4.18;;;;;;;;;;5018521;28;20404;-85
2023/12/14 14:21:34;;;;;;;11.40;4.63;;;;;;;;;;5021457;28;20045;-84
2023/12/14 14:24:00;;;;;;;6.93;4.30;;;;;;;;;;5023305;28;20048;-85
2023/12/14 14:26:26;;;;;;;8.48;4.70;;;;;;;;;;5027029;28;20038;-85
2023/12/14 14:28:54;;;;;;;9.02;4.00;;;;;;;;;;5007428;28;20120;-88
2023/12/14 14:31:20;;;;;;;9.00;4.22;;;;;;;;;;5037311;28;20413;-85
2023/12/14 14:33:48;;;;;;;7.65;3.45;;;;;;;;;;5021780;28;20061;-85
2023/12/14 14:36:14;;;;;;;7.90;4.38;;;;;;;;;;5024508;28;20492;-84
2023/12/14 14:38:40;;;;;;;7.60;4.00;;;;;;;;;;5024568;28;20053;-85